Data for 05/17/2007

Time Sea-Level Adjusted Pressure Absolute Pressure Temperature Relative Humidity Dew Point   
(mb) (inHg) (mb) (inHg) (C) (F) (%) (C) (F)
00:05 1018 30.06 847 25.01 16 60.8 43 3.4 38.1
00:10 1018 30.06 847 25.01 15.9 60.6 43 3.6 38.4
00:15 1018 30.06 847 25.01 15.5 59.9 48 4.7 40.5
00:20 1018 30.06 847 25.01 15 58.9 49 4.6 40.2
00:25 1018 30.06 847 25.01 14.8 58.6 49 4.4 39.9
00:30 1018 30.06 847 25.01 14.9 58.8 48 4.1 39.4
00:35 1018 30.06 847 25.01 15 58.9 49 4.5 40.1
00:40 1018 30.06 847 25.01 14.7 58.4 53 5.2 41.3
00:45 1018 30.06 847 25.01 14.3 57.7 54 5 41.1
00:50 1018 30.06 847 25.01 13.9 57.1 54 4.9 40.8
00:55 1018 30.06 847 25.01 14.1 57.5 54 4.9 40.9
01:00 1018 30.06 847 25.01 14.6 58.3 52 5 41
01:05 1018 30.06 847 25.01 15.1 59.1 49 4.7 40.4
01:10 1018 30.06 847 25.01 15.4 59.6 50 5.1 41.2
01:15 1018 30.06 847 25.01 15.3 59.5 51 5.3 41.6
01:20 1018 30.06 847 25.01 14.6 58.4 53 5.1 41.3
01:25 1018 30.06 847 25.01 14.6 58.3 53 5.1 41.2
01:30 1018 30.06 847 25.01 14.6 58.3 53 5.1 41.2
01:35 1018 30.06 847 25.01 14.7 58.4 54 5.5 41.9
01:40 1017 30.03 847 25.01 14.7 58.5 53 5.2 41.4
01:45 1017 30.03 847 25.01 14.9 58.7 52 5.2 41.3
01:50 1017 30.03 847 25.01 14.9 58.8 51 5 41.1
01:55 1017 30.03 847 25.01 14.9 58.9 51 5 41.1
02:00 1017 30.03 846 24.98 15.1 59.2 50 4.9 40.8
02:05 1017 30.03 846 24.98 15.2 59.3 50 4.9 40.9
02:10 1017 30.03 846 24.98 15.2 59.3 51 5.1 41.2
02:15 1017 30.03 846 24.98 15.1 59.1 51 5.1 41.2
02:20 1017 30.03 846 24.98 14.8 58.7 53 5.3 41.5
02:25 1017 30.03 846 24.98 14.6 58.2 54 5.4 41.7
02:30 1017 30.03 846 24.98 14.4 57.9 55 5.7 42.2
02:35 1017 30.03 846 24.98 13.5 56.3 59 5.6 42.1
02:40 1017 30.03 846 24.98 13.1 55.6 59 5.4 41.7
02:45 1017 30.03 846 24.98 12.9 55.2 60 5.3 41.6
02:50 1017 30.03 846 24.98 12.9 55.2 59 5.1 41.1
02:55 1017 30.03 846 24.98 13 55.3 58 5 40.9
03:00 1017 30.03 846 24.98 13 55.4 59 5.3 41.5
03:05 1017 30.03 846 24.98 13 55.3 58 5 40.9
03:10 1017 30.03 846 24.98 13 55.5 57 4.8 40.7
03:15 1017 30.03 846 24.98 13.1 55.5 57 4.9 40.8
03:20 1017 30.03 846 24.98 13.1 55.5 57 4.7 40.5
03:25 1017 30.03 846 24.98 13.3 55.9 56 4.7 40.5
03:30 1017 30.03 846 24.98 13.2 55.7 56 4.7 40.4
03:35 1017 30.03 846 24.98 13.1 55.7 56 4.5 40.1
03:40 1017 30.03 846 24.98 13.1 55.6 56 4.5 40.2
03:45 1017 30.03 846 24.98 13.1 55.6 55 4.4 40
03:50 1017 30.03 846 24.98 13 55.3 56 4.5 40.1
03:55 1017 30.03 846 24.98 13 55.3 57 4.6 40.3
04:00 1017 30.03 846 24.98 12.9 55.1 57 4.5 40.1
04:05 1017 30.03 846 24.98 12.9 55.3 56 4.4 40
04:10 1017 30.03 846 24.98 12.8 55.1 56 4.3 39.8
04:15 1017 30.03 846 24.98 12.4 54.4 56 4.1 39.3
04:20 1017 30.03 846 24.98 12.2 53.9 56 3.6 38.6
04:25 1017 30.03 846 24.98 11.9 53.5 57 3.6 38.5
04:30 1017 30.03 846 24.98 11.7 53.1 57 3.5 38.3
04:35 1017 30.03 846 24.98 12.1 53.8 56 3.7 38.7
04:40 1017 30.03 846 24.98 12.1 53.9 56 3.7 38.6
04:45 1017 30.03 846 24.98 11.9 53.4 57 3.8 38.9
04:50 1017 30.03 846 24.98 11.4 52.6 59 3.7 38.6
04:55 1017 30.03 846 24.98 11.2 52.1 57 3.1 37.5
05:00 1017 30.03 846 24.98 11.6 52.8 56 3.1 37.6
05:05 1017 30.03 846 24.98 11.6 53 56 3.1 37.7
05:10 1017 30.03 846 24.98 11.7 53.1 54 2.7 36.8
05:15 1017 30.03 846 24.98 11.9 53.4 54 3 37.4
05:20 1017 30.03 846 24.98 11.5 52.8 56 3.2 37.7
05:25 1017 30.03 846 24.98 11.5 52.7 55 2.8 37.1
05:30 1017 30.03 846 24.98 11.9 53.3 56 3.3 38
05:35 1017 30.03 847 25.01 12.2 54 55 3.4 38.2
05:40 1017 30.03 847 25.01 12.3 54.1 54 3.3 38
05:45 1017 30.03 847 25.01 12.3 54.2 52 2.8 37
05:50 1017 30.03 847 25.01 12.2 54 54 3.1 37.6
05:55 1017 30.03 847 25.01 12 53.5 53 2.7 36.9
06:00 1017 30.03 847 25.01 12 53.7 53 2.9 37.3
06:05 1017 30.03 847 25.01 11.9 53.3 54 2.8 37
06:10 1018 30.06 847 25.01 11.7 53.1 55 2.9 37.2
06:15 1018 30.06 847 25.01 11.3 52.3 54 2.4 36.4
06:20 1018 30.06 847 25.01 10.9 51.7 49 0.7 33.3
06:25 1017 30.03 847 25.01 11.3 52.3 48 0.7 33.3
06:30 1017 30.03 847 25.01 11.3 52.3 47 0.5 32.8
06:35 1017 30.03 847 25.01 11.5 52.7 50 1.4 34.6
06:40 1017 30.03 847 25.01 11.7 53 53 2.4 36.4
06:45 1017 30.03 847 25.01 11.8 53.3 53 2.7 36.9
06:50 1017 30.03 847 25.01 11.7 53.1 53 2.6 36.7
06:55 1017 30.03 847 25.01 11.6 52.9 54 2.8 37
07:00 1017 30.03 847 25.01 11.6 52.8 55 2.8 37.1
07:05 1018 30.06 847 25.01 12 53.5 54 3 37.4
07:10 1018 30.06 847 25.01 12.3 54.1 54 3.2 37.7
07:15 1018 30.06 847 25.01 12.3 54.2 53 3.2 37.7
07:20 1018 30.06 847 25.01 12.5 54.4 53 3.3 37.9
07:25 1018 30.06 847 25.01 12.6 54.7 52 3.1 37.6
07:30 1018 30.06 847 25.01 13.2 55.7 50 3 37.3
07:35 1018 30.06 847 25.01 13.3 55.9 51 3.4 38.1
07:40 1018 30.06 847 25.01 13.2 55.8 53 3.8 38.9
07:45 1018 30.06 847 25.01 13.6 56.4 52 4 39.3
07:50 1018 30.06 847 25.01 13.8 56.8 51 3.9 39
07:55 1018 30.06 847 25.01 14 57.2 51 4.1 39.4
08:00 1018 30.06 847 25.01 14.2 57.5 50 4 39.3
08:05 1018 30.06 847 25.01 14.3 57.7 50 4.1 39.3
08:10 1018 30.06 847 25.01 14.9 58.9 46 3.4 38.2
08:15 1018 30.06 847 25.01 15.5 59.9 46 4 39.1
08:20 1018 30.06 847 25.01 15.8 60.4 44 3.6 38.5
08:25 1018 30.06 847 25.01 15.8 60.4 43 3.4 38.2
08:30 1017 30.03 847 25.01 15.9 60.5 42 3.1 37.7
08:35 1017 30.03 847 25.01 15.5 59.8 42 2.6 36.7
08:40 1017 30.03 847 25.01 15.4 59.8 44 3.3 37.9
08:45 1017 30.03 847 25.01 16 60.8 41 2.7 36.9
08:50 1017 30.03 847 25.01 17.1 62.7 36 2.1 35.8
08:55 1017 30.03 847 25.01 17.6 63.7 38 3.2 37.8
09:00 1017 30.03 847 25.01 17.8 64 35 2.1 35.7
09:05 1017 30.03 847 25.01 18.2 64.8 35 2.6 36.6
09:10 1017 30.03 847 25.01 18.3 65 35 2.6 36.7
09:15 1017 30.03 847 25.01 18.8 65.8 34 2.6 36.6
09:20 1017 30.03 847 25.01 19.4 66.9 33 2.7 36.8
09:25 1017 30.03 847 25.01 20 68 33 3.5 38.3
09:30 1017 30.03 847 25.01 20.5 68.9 31 3.1 37.5
09:35 1017 30.03 847 25.01 20.7 69.2 34 4.5 40.1
09:40 1017 30.03 847 25.01 20.1 68.2 38 5.4 41.8
09:45 1017 30.03 847 25.01 20 68 40 6 42.8
09:50 1017 30.03 847 25.01 19.3 66.8 40 5.4 41.8
09:55 1017 30.03 847 25.01 19.7 67.4 38 5.2 41.4
10:00 1017 30.03 847 25.01 20.1 68.1 37 5 41
10:05 1017 30.03 846 24.98 19.7 67.4 38 5.2 41.4
10:10 1017 30.03 846 24.98 19.9 67.7 40 6 42.9
10:15 1017 30.03 846 24.98 19.4 67 40 5.8 42.4
10:20 1017 30.03 846 24.98 19.2 66.5 41 5.9 42.5
10:25 1017 30.03 846 24.98 19.5 67 40 5.6 42
10:30 1017 30.03 846 24.98 20.1 68.3 39 5.9 42.6
10:35 1017 30.03 846 24.98 20.5 69 36 5.1 41.2
10:40 1017 30.03 846 24.98 20.6 69.1 36 5.2 41.3
10:45 1017 30.03 846 24.98 21.5 70.6 35 5.5 41.9
10:50 1017 30.03 846 24.98 20.8 69.4 38 6.2 43.1
10:55 1017 30.03 846 24.98 21.3 70.4 35 5.4 41.8
11:00 1017 30.03 846 24.98 21.8 71.3 35 5.8 42.4
11:05 1017 30.03 846 24.98 21.8 71.3 34 5.4 41.7
11:10 1017 30.03 846 24.98 23.2 73.8 32 6 42.8
11:15 1017 30.03 846 24.98 23.6 74.4 32 5.9 42.7
11:20 1017 30.03 846 24.98 22.9 73.3 33 6.1 43
11:25 1017 30.03 846 24.98 23.6 74.5 31 5.5 42
11:30 1017 30.03 846 24.98 23.9 75 31 6 42.8
11:35 1017 30.03 846 24.98 22.6 72.6 32 5.4 41.7
11:40 1017 30.03 846 24.98 23.5 74.2 30 5.3 41.5
11:45 1017 30.03 846 24.98 23.3 73.9 31 5.5 41.9
11:50 1017 30.03 846 24.98 23.6 74.5 32 5.9 42.7
11:55 1017 30.03 846 24.98 24.7 76.5 30 6.1 43.1
12:00 1016 30 846 24.98 25.1 77.2 28 5.8 42.4
12:05 1016 30 846 24.98 24.7 76.4 28 5.3 41.6
12:10 1016 30 846 24.98 24 75.2 30 5.4 41.7
12:15 1016 30 846 24.98 23.5 74.3 32 5.9 42.6
12:20 1016 30 846 24.98 24.6 76.2 29 5.8 42.4
12:25 1016 30 845 24.95 25 77 28 5.7 42.3
12:30 1016 30 845 24.95 25 76.9 29 5.8 42.4
12:35 1016 30 845 24.95 24.7 76.4 27 4.7 40.4
12:40 1016 30 845 24.95 24.9 76.8 26 4.5 40.1
12:45 1016 30 845 24.95 25.7 78.2 22 2.5 36.6
12:50 1016 30 845 24.95 25.4 77.8 22 2.1 35.9
12:55 1016 30 845 24.95 25.2 77.4 19 -0.2 31.7
13:00 1016 30 845 24.95 25.7 78.3 19 1 33.7
13:05 1016 30 845 24.95 25.7 78.3 22 2.5 36.4
13:10 1016 30 845 24.95 26 78.9 18 -0.2 31.6
13:15 1016 30 845 24.95 26.7 80.1 17 0.3 32.5
13:20 1016 30 845 24.95 26.6 79.8 19 1.3 34.3
13:25 1016 30 845 24.95 25.9 78.5 19 0.9 33.7
13:30 1016 30 845 24.95 26.4 79.5 20 1.6 34.8
13:35 1016 30 845 24.95 26.8 80.2 17 0.3 32.5
13:40 1016 30 845 24.95 26.9 80.4 18 0.6 33.1
13:45 1016 30 845 24.95 27.2 81 15 -0.9 30.3
13:50 1015 29.97 845 24.95 27.4 81.3 16 -0.6 30.9
13:55 1015 29.97 845 24.95 27.8 82 15 -0.8 30.5
14:00 1015 29.97 845 24.95 27.8 82.1 16 -0.1 31.8
14:05 1015 29.97 845 24.95 27.9 82.2 16 0.2 32.4
14:10 1015 29.97 845 24.95 27.9 82.1 16 -0.1 31.7
14:15 1015 29.97 845 24.95 26.8 80.2 19 1.1 34
14:20 1015 29.97 845 24.95 26.2 79.2 19 0.8 33.4
14:25 1015 29.97 845 24.95 26.8 80.2 16 -0.8 30.5
14:30 1015 29.97 845 24.95 26 78.8 19 1.2 34.2
14:35 1015 29.97 844 24.92 26.3 79.3 17 -0 31.9
14:40 1015 29.97 844 24.92 27 80.6 18 1 33.8
14:45 1015 29.97 844 24.92 27 80.5 18 0.5 33
14:50 1015 29.97 844 24.92 26.8 80.3 17 0.2 32.3
14:55 1015 29.97 844 24.92 27.3 81.2 15 -1 30.2
15:00 1015 29.97 844 24.92 27.1 80.8 14 -2 28.3
15:05 1015 29.97 844 24.92 26.8 80.3 14 -2.3 27.9
15:10 1015 29.97 844 24.92 27.1 80.8 14 -2.3 27.9
15:15 1015 29.97 844 24.92 27.1 80.8 15 -1.9 28.6
15:20 1015 29.97 844 24.92 27.4 81.2 14 -2.6 27.3
15:25 1015 29.97 844 24.92 27.2 81 14 -2.4 27.7
15:30 1015 29.97 844 24.92 28.1 82.6 13 -2.3 27.8
15:35 1015 29.97 844 24.92 27.5 81.4 14 -2.6 27.3
15:40 1015 29.97 844 24.92 27.7 81.8 14 -2 28.4
15:45 1015 29.97 844 24.92 27.9 82.2 14 -2 28.4
15:50 1015 29.97 844 24.92 27.6 81.7 14 -2.4 27.7
15:55 1015 29.97 844 24.92 27 80.6 14 -2.5 27.5
16:00 1015 29.97 844 24.92 27.3 81.1 14 -2.6 27.3
16:05 1015 29.97 844 24.92 27.9 82.3 14 -2.2 28
16:10 1015 29.97 844 24.92 27.5 81.6 14 -1.8 28.8
16:15 1015 29.97 844 24.92 26.8 80.3 14 -3 26.6
16:20 1015 29.97 844 24.92 26.4 79.4 13 -4.1 24.6
16:25 1015 29.97 844 24.92 26.1 78.9 13 -4 24.9
16:30 1015 29.97 844 24.92 25.8 78.5 14 -3.4 25.8
16:35 1015 29.97 844 24.92 25.8 78.5 14 -3.6 25.6
16:40 1015 29.97 844 24.92 25.8 78.5 15 -2.4 27.8
16:45 1014 29.94 844 24.92 25.8 78.4 15 -2.6 27.4
16:50 1014 29.94 844 24.92 25.9 78.7 14 -3.2 26.2
16:55 1014 29.94 844 24.92 26.1 79 15 -1.9 28.7
17:00 1014 29.94 843 24.89 25.7 78.2 15 -3 26.6
17:05 1014 29.94 843 24.89 25.7 78.2 15 -2.8 27
17:10 1014 29.94 843 24.89 25.5 77.9 15 -2.4 27.7
17:15 1014 29.94 844 24.92 25.6 78.1 15 -2.7 27.2
17:20 1014 29.94 844 24.92 25.9 78.7 15 -2.5 27.4
17:25 1014 29.94 844 24.92 25.9 78.6 15 -2.9 26.8
17:30 1014 29.94 844 24.92 25.7 78.3 14 -3.2 26.2
17:35 1014 29.94 844 24.92 25.8 78.4 14 -3.1 26.4
17:40 1014 29.94 844 24.92 25.9 78.7 14 -3.6 25.6
17:45 1014 29.94 844 24.92 26.1 79 14 -3.4 26
17:50 1014 29.94 843 24.89 26.2 79.2 15 -2.5 27.5
17:55 1014 29.94 843 24.89 26.3 79.3 14 -2.6 27.3
18:00 1014 29.94 843 24.89 26.6 79.8 14 -2.8 26.9
18:05 1014 29.94 843 24.89 26.8 80.3 14 -2.2 28.1
18:10 1014 29.94 843 24.89 26.4 79.6 14 -3.1 26.5
18:15 1014 29.94 843 24.89 26 78.8 16 -1.3 29.7
18:20 1014 29.94 843 24.89 26.4 79.5 17 -0.1 31.9
18:25 1014 29.94 843 24.89 26.2 79.1 18 0 32.1
18:30 1014 29.94 843 24.89 26.2 79.1 18 0.3 32.6
18:35 1014 29.94 843 24.89 25.9 78.5 19 0.7 33.3
18:40 1014 29.94 843 24.89 26 78.7 16 -1.8 28.7
18:45 1014 29.94 843 24.89 26.1 79 19 1.1 34
18:50 1014 29.94 843 24.89 26 78.8 20 1.8 35.3
18:55 1014 29.94 843 24.89 25.7 78.3 19 0.7 33.2
19:00 1014 29.94 843 24.89 25.5 77.9 18 -0.4 31.3
19:05 1014 29.94 843 24.89 25 77 19 -0.2 31.7
19:10 1014 29.94 843 24.89 24.6 76.3 18 -0.9 30.3
19:15 1014 29.94 843 24.89 24.5 76.2 19 -0.5 31
19:20 1014 29.94 843 24.89 24.5 76 18 -1.1 30.1
19:25 1014 29.94 843 24.89 24.7 76.4 18 -1.1 30.1
19:30 1014 29.94 843 24.89 24.8 76.6 15 -3 26.6
19:35 1014 29.94 843 24.89 24.8 76.6 16 -2.5 27.4
19:40 1014 29.94 843 24.89 24.9 76.8 15 -2.9 26.8
19:45 1014 29.94 843 24.89 24.9 76.7 20 0.3 32.6
19:50 1014 29.94 843 24.89 24.7 76.5 19 -0.5 31.1
19:55 1014 29.94 843 24.89 24.5 76.2 21 0.8 33.4
20:00 1014 29.94 843 24.89 24.1 75.4 24 2.3 36.1
20:05 1014 29.94 843 24.89 24 75.3 21 0.5 33
20:10 1014 29.94 843 24.89 23.9 75 23 1.8 35.2
20:15 1014 29.94 843 24.89 23.5 74.2 26 3.3 38
20:20 1014 29.94 843 24.89 23.4 74.1 22 1 33.8
20:25 1014 29.94 843 24.89 23.4 74 26 2.8 37
20:30 1014 29.94 843 24.89 22.9 73.2 29 4.1 39.3
20:35 1014 29.94 843 24.89 22.6 72.6 29 3.8 38.8
20:40 1014 29.94 843 24.89 22 71.6 30 3.7 38.7
20:45 1014 29.94 843 24.89 21.7 71.1 31 3.9 39
20:50 1014 29.94 843 24.89 21.5 70.7 27 1.9 35.4
20:55 1014 29.94 843 24.89 21.1 70 27 1.5 34.6
21:00 1014 29.94 844 24.92 20.9 69.7 28 1.9 35.5
21:05 1014 29.94 844 24.92 20.9 69.7 30 2.6 36.8
21:10 1015 29.97 844 24.92 20.8 69.5 29 2.5 36.6
21:15 1015 29.97 844 24.92 21.1 70 28 2 35.6
21:20 1015 29.97 844 24.92 21.3 70.3 27 1.8 35.2
21:25 1015 29.97 844 24.92 21.1 69.9 28 2.3 36.1
21:30 1015 29.97 844 24.92 20.8 69.5 28 2 35.7
21:35 1015 29.97 844 24.92 20.5 68.9 30 2.3 36.2
21:40 1015 29.97 844 24.92 20.2 68.4 31 2.6 36.7
21:45 1015 29.97 844 24.92 19.9 67.9 30 2.2 36
21:50 1015 29.97 844 24.92 20 68 30 2.2 35.9
21:55 1015 29.97 844 24.92 20 68.1 31 2.7 36.8
22:00 1015 29.97 844 24.92 19 66.2 35 3.5 38.3
22:05 1015 29.97 844 24.92 18.6 65.5 35 3 37.4
22:10 1015 29.97 844 24.92 18.8 65.9 33 2.6 36.6
22:15 1015 29.97 844 24.92 18.6 65.5 35 2.9 37.2
22:20 1015 29.97 844 24.92 18.5 65.2 38 4 39.2
22:25 1015 29.97 844 24.92 18.3 64.9 36 2.9 37.2
22:30 1015 29.97 844 24.92 18 64.4 37 3.3 38
22:35 1015 29.97 844 24.92 18.1 64.5 36 2.9 37.3
22:40 1015 29.97 845 24.95 18.2 64.8 34 2.1 35.7
22:45 1016 30 845 24.95 18.4 65.2 36 3.2 37.8
22:50 1016 30 845 24.95 17.9 64.2 36 2.7 36.9
22:55 1016 30 845 24.95 18.5 65.3 32 1.6 34.9
23:00 1016 30 845 24.95 19.4 66.8 30 1.5 34.7
23:05 1016 30 845 24.95 19.5 67.1 31 1.9 35.4
23:10 1016 30 845 24.95 19.5 67 33 2.9 37.2
23:15 1016 30 846 24.98 19.3 66.7 29 0.9 33.6
23:20 1016 30 846 24.98 20 67.9 30 2.1 35.8
23:25 1016 30 846 24.98 19.4 66.9 32 2.6 36.7
23:30 1017 30.03 846 24.98 19 66.2 33 2.7 36.9
23:35 1017 30.03 846 24.98 19.1 66.4 32 2.1 35.8
23:40 1016 30 846 24.98 19.2 66.5 32 2.1 35.8
23:45 1015 29.97 845 24.95 18.2 64.7 46 6.5 43.7
23:50 1015 29.97 844 24.92 16.6 62 45 4.8 40.7
23:55 1015 29.97 845 24.95 17.8 64.1 39 3.9 39.1
24:00 1016 30 845 24.95 17.6 63.6 41 4.3 39.7